Altamira, Brazil
Current Conditions -  °F | °C
As of 9:00 AM on Wednesday 28 Jan 2015 (Local Time) from SBHT Reporting Station
Broken Clouds Broken Clouds  
Wind Chill: 77°   Ceiling: 1500
Heat Index: 78°   Visibility: 6mi
Dew Point: 77°   Wind: 0mph
Humidity: 100%   Direction: NA
Pressure: 29.91"   Gusts: NA
Location:  3.2°S, 52.21°W
Report Text: SBHT 281200Z 00000KT 9999 SCT011 BKN015 25/25 Q1013
Loading
Personal Weather Stations






























Interactive Weather Map New forecast layout! Learn more

10-Day Weather Forecast

Advertisements
Track Severe Weather on mobile